createdAt,value
2024-02-13T00:01:57.505Z,7.50
2024-02-13T00:04:23.919Z,4.97
2024-02-13T00:06:50.985Z,5.07
2024-02-13T00:09:17.569Z,7.00
2024-02-13T00:11:47.847Z,5.47
2024-02-13T00:14:14.440Z,12.20
2024-02-13T00:16:42.794Z,9.05
2024-02-13T00:19:11.225Z,3.55
2024-02-13T00:21:37.711Z,4.63
2024-02-13T00:24:04.593Z,7.00
2024-02-13T00:26:31.151Z,5.95
2024-02-13T00:28:57.640Z,6.05
2024-02-13T00:31:24.445Z,6.32
2024-02-13T00:33:50.966Z,7.47
2024-02-13T00:36:17.447Z,4.65
2024-02-13T00:38:45.076Z,5.57
2024-02-13T00:41:11.760Z,7.63
2024-02-13T00:43:38.260Z,8.07
2024-02-13T00:46:04.734Z,7.53
2024-02-13T00:48:34.125Z,7.30
2024-02-13T00:51:00.751Z,4.97
2024-02-13T00:53:27.287Z,7.20
2024-02-13T00:55:54.195Z,6.60
2024-02-13T00:58:20.701Z,8.23
2024-02-13T01:00:47.293Z,8.85
2024-02-13T01:03:13.773Z,5.15
2024-02-13T01:05:42.360Z,6.82
2024-02-13T01:08:09.361Z,8.25
2024-02-13T01:10:35.814Z,8.43
2024-02-13T01:13:02.315Z,8.32
2024-02-13T01:15:29.619Z,5.28
2024-02-13T01:17:56.282Z,6.47
2024-02-13T01:20:25.234Z,6.88
2024-02-13T01:22:54.861Z,8.02
2024-02-13T01:25:21.388Z,8.98
2024-02-13T01:27:48.390Z,2.83
2024-02-13T01:30:17.719Z,9.52
2024-02-13T01:32:44.874Z,4.85
2024-02-13T01:35:12.445Z,7.68
2024-02-13T01:37:40.699Z,3.60
2024-02-13T01:40:07.914Z,3.85
2024-02-13T01:42:41.830Z,3.10
2024-02-13T01:45:11.011Z,5.20
2024-02-13T01:47:38.099Z,7.82
2024-02-13T01:50:08.255Z,8.95
2024-02-13T01:52:36.762Z,5.10
2024-02-13T01:55:08.692Z,3.28
2024-02-13T01:57:37.401Z,10.48
2024-02-13T02:00:10.560Z,6.97
2024-02-13T02:02:37.339Z,5.43
2024-02-13T02:05:05.964Z,6.25
2024-02-13T02:07:33.676Z,6.03
2024-02-13T02:10:00.765Z,6.32
2024-02-13T02:12:27.274Z,12.52
2024-02-13T02:14:53.859Z,7.10
2024-02-13T02:17:20.398Z,6.55
2024-02-13T02:19:47.091Z,6.70
2024-02-13T02:22:13.609Z,7.47
2024-02-13T02:24:40.244Z,13.02
2024-02-13T02:27:06.713Z,7.22
2024-02-13T02:29:35.341Z,8.95
2024-02-13T02:32:02.218Z,4.80
2024-02-13T02:34:28.915Z,6.63
2024-02-13T02:36:55.401Z,8.63
2024-02-13T02:39:21.794Z,8.30
2024-02-13T02:41:48.308Z,6.22
2024-02-13T02:44:14.886Z,9.20
2024-02-13T02:46:41.328Z,8.23
2024-02-13T02:49:08.277Z,9.50
2024-02-13T02:51:35.007Z,10.40
2024-02-13T02:54:01.503Z,5.60
2024-02-13T02:56:27.975Z,7.53
2024-02-13T02:58:57.047Z,8.63
2024-02-13T03:01:23.569Z,6.68
2024-02-13T03:03:53.217Z,7.40
2024-02-13T03:06:20.750Z,7.78
2024-02-13T03:08:47.485Z,9.85
2024-02-13T03:11:14.125Z,7.00
2024-02-13T03:13:40.638Z,10.18
2024-02-13T03:16:07.256Z,7.70
2024-02-13T03:18:33.967Z,6.75
2024-02-13T03:21:00.873Z,5.72
2024-02-13T03:23:27.411Z,6.97
2024-02-13T03:25:54.170Z,10.35
2024-02-13T03:28:20.578Z,6.65
2024-02-13T03:30:47.041Z,6.15
2024-02-13T03:33:13.645Z,6.72
2024-02-13T03:35:40.268Z,6.15
2024-02-13T03:38:07.381Z,5.15
2024-02-13T03:40:33.970Z,7.22
2024-02-13T03:43:01.339Z,7.43
2024-02-13T03:45:27.815Z,10.45
2024-02-13T03:47:54.360Z,4.75
2024-02-13T03:50:20.956Z,5.13
2024-02-13T03:52:47.694Z,6.97
2024-02-13T03:55:14.411Z,5.35
2024-02-13T03:57:41.494Z,5.15
2024-02-13T04:00:08.831Z,6.07
2024-02-13T04:02:35.525Z,6.38
2024-02-13T04:05:02.036Z,10.23
2024-02-13T04:07:29.108Z,6.25
2024-02-13T04:09:55.742Z,6.95
2024-02-13T04:12:22.566Z,8.10
2024-02-13T04:14:49.333Z,8.73
2024-02-13T04:17:17.211Z,12.60
2024-02-13T04:19:44.278Z,9.95
2024-02-13T04:22:10.925Z,13.32
2024-02-13T04:24:37.629Z,7.93
2024-02-13T04:27:04.511Z,5.40
2024-02-13T04:29:31.020Z,9.90
2024-02-13T04:31:57.467Z,4.60
2024-02-13T04:34:25.185Z,7.40
2024-02-13T04:39:18.579Z,6.10
2024-02-13T04:41:45.809Z,6.35
2024-02-13T04:44:12.840Z,8.82
2024-02-13T04:46:40.201Z,9.10
2024-02-13T04:49:06.897Z,4.70
2024-02-13T04:51:33.590Z,7.85
2024-02-13T04:54:00.027Z,10.32
2024-02-13T04:56:27.686Z,10.45
2024-02-13T04:58:56.933Z,6.88
2024-02-13T05:01:25.476Z,5.15
2024-02-13T05:03:55.616Z,5.32
2024-02-13T05:06:40.721Z,7.47
2024-02-13T05:09:07.451Z,4.78
2024-02-13T05:11:33.905Z,4.82
2024-02-13T05:14:04.104Z,5.38
2024-02-13T05:16:33.491Z,6.18
2024-02-13T05:19:00.370Z,6.47
2024-02-13T05:21:28.033Z,6.28
2024-02-13T05:23:54.799Z,6.85
2024-02-13T05:26:21.525Z,9.85
2024-02-13T05:28:50.609Z,6.97
2024-02-13T05:31:19.114Z,10.43
2024-02-13T05:33:45.728Z,5.53
2024-02-13T05:36:12.209Z,10.48
2024-02-13T05:38:44.797Z,8.38
2024-02-13T05:41:11.826Z,11.25
2024-02-13T05:43:39.854Z,7.60
2024-02-13T05:46:06.879Z,6.22
2024-02-13T05:48:33.374Z,6.32
2024-02-13T05:50:59.823Z,7.95
2024-02-13T05:53:30.023Z,8.30
2024-02-13T05:55:56.907Z,5.47
2024-02-13T05:58:29.124Z,6.28
2024-02-13T06:00:56.841Z,5.38
2024-02-13T06:03:23.951Z,6.13
2024-02-13T06:05:52.753Z,10.75
2024-02-13T06:08:19.995Z,7.40
2024-02-13T06:10:46.866Z,7.60
2024-02-13T06:13:15.679Z,8.70
2024-02-13T06:15:42.297Z,6.50
2024-02-13T06:18:08.737Z,8.77
2024-02-13T06:20:35.337Z,6.93
2024-02-13T06:23:01.904Z,12.85
2024-02-13T06:25:28.435Z,5.90
2024-02-13T06:27:55.079Z,6.40
2024-02-13T06:30:21.563Z,6.38
2024-02-13T06:32:48.109Z,8.48
2024-02-13T06:35:15.117Z,12.18
2024-02-13T06:37:41.619Z,7.15
2024-02-13T06:40:09.092Z,8.75
2024-02-13T06:42:36.089Z,11.02
2024-02-13T06:45:03.307Z,7.55
2024-02-13T06:47:30.178Z,4.93
2024-02-13T06:49:56.796Z,9.63
2024-02-13T06:52:23.443Z,9.55
2024-02-13T06:54:51.030Z,11.50
2024-02-13T06:57:17.902Z,12.48
2024-02-13T06:59:44.440Z,12.85
2024-02-13T07:02:11.363Z,12.52
2024-02-13T07:04:38.945Z,12.90
2024-02-13T07:07:19.247Z,9.80
2024-02-13T07:09:54.205Z,10.98
2024-02-13T07:12:23.809Z,8.00
2024-02-13T07:14:51.863Z,13.15
2024-02-13T07:19:45.814Z,10.63
2024-02-13T07:22:12.324Z,13.90
2024-02-13T07:24:39.909Z,7.40
2024-02-13T07:27:06.830Z,8.32
2024-02-13T07:29:33.573Z,11.07
2024-02-13T07:32:03.238Z,6.13
2024-02-13T07:34:29.829Z,9.38
2024-02-13T07:36:56.711Z,9.68
2024-02-13T07:39:23.151Z,10.27
2024-02-13T07:41:50.821Z,8.82
2024-02-13T07:44:17.388Z,10.82
2024-02-13T07:46:44.477Z,10.70
2024-02-13T07:49:11.896Z,14.48
2024-02-13T07:51:38.821Z,12.13
2024-02-13T07:54:05.585Z,9.68
2024-02-13T07:56:32.112Z,9.30
2024-02-13T07:58:59.348Z,10.38
2024-02-13T08:01:29.165Z,10.95
2024-02-13T08:03:56.100Z,8.68
2024-02-13T08:06:22.720Z,12.80
2024-02-13T08:08:51.145Z,9.35
2024-02-13T08:11:22.789Z,8.45
2024-02-13T08:13:49.404Z,8.68
2024-02-13T08:16:15.895Z,7.38
2024-02-13T08:18:42.509Z,9.68
2024-02-13T08:21:09.201Z,9.00
2024-02-13T08:23:35.747Z,8.88
2024-02-13T08:26:02.425Z,12.05
2024-02-13T08:28:28.853Z,7.88
2024-02-13T08:30:55.301Z,5.50
2024-02-13T08:33:22.775Z,9.27
2024-02-13T08:35:53.639Z,11.55
2024-02-13T08:38:21.780Z,5.35
2024-02-13T08:40:48.280Z,7.68
2024-02-13T08:43:14.733Z,7.15
2024-02-13T08:45:41.225Z,5.63
2024-02-13T08:48:08.315Z,5.47
2024-02-13T08:50:35.205Z,9.98
2024-02-13T08:53:02.459Z,6.75
2024-02-13T08:55:29.264Z,9.05
2024-02-13T08:57:55.693Z,8.27
2024-02-13T09:00:22.405Z,4.45
2024-02-13T09:02:49.145Z,7.43
2024-02-13T09:05:15.989Z,8.77
2024-02-13T09:07:43.127Z,5.10
2024-02-13T09:10:16.116Z,7.78
2024-02-13T09:12:46.346Z,3.97
2024-02-13T09:15:14.092Z,6.03
2024-02-13T09:17:45.642Z,8.00
2024-02-13T09:20:15.846Z,3.72
2024-02-13T09:22:45.878Z,7.32
2024-02-13T09:25:17.716Z,6.18
2024-02-13T09:27:45.150Z,7.60
2024-02-13T09:30:12.063Z,5.60
2024-02-13T09:32:38.661Z,9.07
2024-02-13T09:35:06.278Z,5.13
2024-02-13T09:39:59.511Z,6.88
2024-02-13T09:42:26.626Z,6.15
2024-02-13T09:44:53.425Z,8.38
2024-02-13T09:47:21.571Z,5.65
2024-02-13T09:49:48.409Z,9.45
2024-02-13T09:52:17.934Z,6.38
2024-02-13T09:54:45.939Z,9.93
2024-02-13T09:57:12.899Z,7.80
2024-02-13T09:59:40.343Z,11.25
2024-02-13T10:02:07.680Z,9.13
2024-02-13T10:04:34.164Z,6.60
2024-02-13T10:07:03.132Z,8.48
2024-02-13T10:09:30.934Z,9.23
2024-02-13T10:14:23.936Z,5.90
2024-02-13T10:16:51.350Z,7.47
2024-02-13T10:19:22.396Z,4.88
2024-02-13T10:21:54.554Z,8.40
2024-02-13T10:24:21.701Z,6.22
2024-02-13T10:26:48.253Z,5.22
2024-02-13T10:29:14.900Z,7.32
2024-02-13T10:31:42.810Z,6.25
2024-02-13T10:34:13.246Z,3.55
2024-02-13T10:36:46.068Z,8.05
2024-02-13T10:39:15.405Z,5.50
2024-02-13T10:41:43.414Z,4.90
2024-02-13T10:44:14.914Z,4.57
2024-02-13T10:46:43.279Z,6.20
2024-02-13T10:50:01.280Z,6.30
2024-02-13T10:52:28.748Z,6.30
2024-02-13T10:54:57.290Z,6.50
2024-02-13T10:57:24.655Z,4.53
2024-02-13T10:59:52.041Z,3.35
2024-02-13T11:02:20.173Z,5.13
2024-02-13T11:04:49.220Z,4.82
2024-02-13T11:07:18.017Z,6.30
2024-02-13T11:09:44.939Z,4.20
2024-02-13T11:12:11.762Z,6.40
2024-02-13T11:14:38.553Z,6.70
2024-02-13T11:17:10.580Z,6.35
2024-02-13T11:20:00.502Z,9.00
2024-02-13T11:22:38.763Z,3.75
2024-02-13T11:25:12.287Z,5.63
2024-02-13T11:27:41.496Z,7.75
2024-02-13T11:30:08.620Z,7.28
2024-02-13T11:32:39.040Z,5.55
2024-02-13T11:35:11.514Z,4.95
2024-02-13T11:37:38.471Z,5.75
2024-02-13T11:40:09.682Z,4.57
2024-02-13T11:42:36.516Z,5.30
2024-02-13T11:45:07.404Z,4.97
2024-02-13T11:47:34.370Z,3.72
2024-02-13T11:50:01.143Z,4.93
2024-02-13T11:52:27.722Z,3.83
2024-02-13T11:54:54.273Z,5.32
2024-02-13T11:57:22.228Z,6.70
2024-02-13T11:59:59.052Z,3.55
2024-02-13T12:02:25.780Z,4.65
2024-02-13T12:04:53.194Z,3.67
2024-02-13T12:07:19.736Z,3.85
2024-02-13T12:09:51.433Z,6.00
2024-02-13T12:12:17.998Z,4.25
2024-02-13T12:14:44.899Z,6.55
2024-02-13T12:17:13.072Z,2.30
2024-02-13T12:19:43.443Z,3.72
2024-02-13T12:22:15.713Z,4.18
2024-02-13T12:24:45.885Z,1.75
2024-02-13T12:27:13.652Z,1.48
2024-02-13T12:29:44.318Z,2.53
2024-02-13T12:32:17.449Z,1.30
2024-02-13T12:34:48.524Z,3.38
2024-02-13T12:37:16.504Z,2.05
2024-02-13T12:42:14.701Z,1.23
2024-02-13T12:44:41.753Z,4.72
2024-02-13T12:47:09.109Z,1.70
2024-02-13T12:49:37.094Z,3.83
2024-02-13T12:52:04.535Z,2.42
2024-02-13T12:54:33.491Z,3.90
2024-02-13T12:57:01.862Z,2.08
2024-02-13T12:59:29.248Z,1.92
2024-02-13T13:01:55.849Z,1.77
2024-02-13T13:04:24.105Z,3.92
2024-02-13T13:06:52.376Z,6.45
2024-02-13T13:09:27.642Z,1.88
2024-02-13T13:11:55.908Z,1.70
2024-02-13T13:14:24.515Z,2.20
2024-02-13T13:16:52.399Z,4.28
2024-02-13T13:19:22.819Z,1.13
2024-02-13T13:21:49.867Z,2.42
2024-02-13T13:24:16.337Z,3.58
2024-02-13T13:26:43.154Z,6.72
2024-02-13T13:29:10.092Z,4.55
2024-02-13T13:31:42.368Z,3.30
2024-02-13T13:34:10.989Z,2.97
2024-02-13T13:36:38.581Z,3.60
2024-02-13T13:39:10.489Z,1.88
2024-02-13T13:41:40.931Z,6.82
2024-02-13T13:44:14.723Z,3.38
2024-02-13T13:46:42.275Z,2.95
2024-02-13T13:49:09.087Z,1.25
2024-02-13T13:51:35.723Z,1.70
2024-02-13T13:54:02.616Z,2.53
2024-02-13T13:56:29.306Z,3.22
2024-02-13T13:58:55.919Z,1.77
2024-02-13T14:01:22.707Z,4.07
2024-02-13T14:03:49.641Z,3.08
2024-02-13T14:06:16.332Z,1.58
2024-02-13T14:08:42.892Z,4.32
2024-02-13T14:11:09.350Z,3.78
2024-02-13T14:13:35.925Z,3.30
2024-02-13T14:16:02.898Z,5.30
2024-02-13T14:18:30.161Z,4.05
2024-02-13T14:20:57.311Z,2.85
2024-02-13T14:23:24.555Z,2.13
2024-02-13T14:25:51.636Z,1.92
2024-02-13T14:28:19.151Z,1.83
2024-02-13T14:30:45.929Z,2.60
2024-02-13T14:33:13.435Z,5.10
2024-02-13T14:35:40.836Z,5.43
2024-02-13T14:38:09.186Z,3.13
2024-02-13T14:40:40.517Z,1.35
2024-02-13T14:43:08.470Z,1.70
2024-02-13T14:45:40.410Z,4.60
2024-02-13T14:48:14.485Z,3.38
2024-02-13T14:50:41.678Z,2.67
2024-02-13T14:53:10.026Z,2.70
2024-02-13T14:55:39.625Z,5.78
2024-02-13T14:58:14.649Z,2.20
2024-02-13T15:00:53.925Z,2.80
2024-02-13T15:03:21.545Z,4.65
2024-02-13T15:05:48.315Z,2.58
2024-02-13T15:08:17.056Z,2.53
2024-02-13T15:10:45.321Z,9.50
2024-02-13T15:13:13.697Z,2.95
2024-02-13T15:15:40.110Z,2.08
2024-02-13T15:18:08.152Z,3.28
2024-02-13T15:20:36.439Z,2.72
2024-02-13T15:23:03.156Z,3.35
2024-02-13T15:25:30.029Z,3.13
2024-02-13T15:27:56.701Z,6.38
2024-02-13T15:30:23.933Z,3.95
2024-02-13T15:32:50.807Z,1.75
2024-02-13T15:35:20.260Z,2.17
2024-02-13T15:38:05.409Z,3.60
2024-02-13T15:40:50.257Z,1.70
2024-02-13T15:43:34.949Z,2.83
2024-02-13T15:46:19.816Z,2.28
2024-02-13T15:48:48.221Z,1.83
2024-02-13T15:51:15.895Z,2.20
2024-02-13T15:53:43.611Z,4.22
2024-02-13T15:56:10.994Z,4.57
2024-02-13T15:58:39.572Z,5.00
2024-02-13T16:01:06.058Z,1.67
2024-02-13T16:03:36.283Z,3.50
2024-02-13T16:06:03.999Z,1.50
2024-02-13T16:10:58.696Z,2.30
2024-02-13T16:13:27.674Z,2.97
2024-02-13T16:15:55.703Z,3.03
2024-02-13T16:18:22.965Z,2.15
2024-02-13T16:20:49.692Z,2.00
2024-02-13T16:23:16.170Z,2.78
2024-02-13T16:25:42.643Z,24.15
2024-02-13T16:28:09.104Z,9.50
2024-02-13T16:30:36.224Z,11.80
2024-02-13T16:33:03.638Z,6.90
2024-02-13T16:35:30.306Z,4.75
2024-02-13T16:37:57.360Z,3.97
2024-02-13T16:40:23.933Z,3.03
2024-02-13T16:42:56.163Z,5.07
2024-02-13T16:45:25.302Z,3.33
2024-02-13T16:47:53.351Z,2.03
2024-02-13T16:50:20.145Z,3.22
2024-02-13T16:52:47.218Z,10.73
2024-02-13T16:55:14.891Z,7.80
2024-02-13T16:57:42.556Z,7.18
2024-02-13T17:00:11.875Z,8.70
2024-02-13T17:02:41.514Z,9.00
2024-02-13T17:05:12.628Z,4.20
2024-02-13T17:07:43.221Z,6.22
2024-02-13T17:10:12.798Z,5.00
2024-02-13T17:12:42.917Z,6.15
2024-02-13T17:15:11.148Z,4.90
2024-02-13T17:17:41.610Z,4.40
2024-02-13T17:20:11.757Z,5.53
2024-02-13T17:22:39.583Z,4.07
2024-02-13T17:25:07.788Z,3.83
2024-02-13T17:27:34.216Z,3.47
2024-02-13T17:30:00.850Z,2.95
2024-02-13T17:32:27.404Z,3.45
2024-02-13T17:34:53.960Z,3.60
2024-02-13T17:37:20.425Z,3.10
2024-02-13T17:39:47.115Z,5.03
2024-02-13T17:42:13.524Z,3.55
2024-02-13T17:44:40.518Z,3.30
2024-02-13T17:47:07.504Z,4.03
2024-02-13T17:49:34.095Z,1.88
2024-02-13T17:52:00.675Z,3.47
2024-02-13T17:54:29.519Z,6.63
2024-02-13T17:56:56.302Z,4.85
2024-02-13T17:59:24.889Z,4.53
2024-02-13T18:01:53.332Z,6.28
2024-02-13T18:04:21.663Z,4.40
2024-02-13T18:06:48.989Z,4.03
2024-02-13T18:09:15.773Z,8.32
2024-02-13T18:11:42.691Z,9.23
2024-02-13T18:14:10.411Z,12.02
2024-02-13T18:16:36.945Z,5.97
2024-02-13T18:19:04.314Z,6.80
2024-02-13T18:21:30.915Z,6.43
2024-02-13T18:24:01.817Z,6.70
2024-02-13T18:26:29.400Z,6.57
2024-02-13T18:28:58.925Z,5.95
2024-02-13T18:31:26.125Z,7.60
2024-02-13T18:33:52.958Z,7.47
2024-02-13T18:36:20.685Z,5.75
2024-02-13T18:38:50.281Z,8.45
2024-02-13T18:41:18.923Z,7.07
2024-02-13T18:43:46.907Z,6.47
2024-02-13T18:46:14.548Z,11.52
2024-02-13T18:48:44.232Z,14.13
2024-02-13T18:51:10.917Z,8.30
2024-02-13T18:53:37.566Z,7.35
2024-02-13T18:56:04.258Z,15.18
2024-02-13T18:58:36.513Z,10.18
2024-02-13T19:01:04.280Z,11.27
2024-02-13T19:03:31.215Z,15.23
2024-02-13T19:06:04.067Z,11.50
2024-02-13T19:08:36.142Z,8.93
2024-02-13T19:11:03.570Z,10.73
2024-02-13T19:13:30.094Z,10.38
2024-02-13T19:15:56.608Z,8.60
2024-02-13T19:18:24.336Z,9.50
2024-02-13T19:20:55.155Z,9.77
2024-02-13T19:23:25.503Z,9.77
2024-02-13T19:25:52.295Z,7.75
2024-02-13T19:28:19.250Z,7.28
2024-02-13T19:30:51.707Z,5.38
2024-02-13T19:33:18.443Z,7.13
2024-02-13T19:35:46.252Z,8.35
2024-02-13T19:38:16.628Z,7.32
2024-02-13T19:40:43.241Z,9.00
2024-02-13T19:43:09.982Z,8.80
2024-02-13T19:45:37.586Z,8.15
2024-02-13T19:48:04.303Z,6.95
2024-02-13T19:50:31.070Z,6.50
2024-02-13T19:52:57.561Z,6.88
2024-02-13T19:55:24.277Z,6.05
2024-02-13T19:57:50.755Z,7.80
2024-02-13T20:00:17.614Z,8.18
2024-02-13T20:02:44.344Z,9.25
2024-02-13T20:05:10.845Z,8.15
2024-02-13T20:07:39.196Z,10.52
2024-02-13T20:10:07.235Z,9.52
2024-02-13T20:12:33.912Z,10.70
2024-02-13T20:15:00.878Z,7.80
2024-02-13T20:17:27.702Z,7.85
2024-02-13T20:19:54.213Z,8.90
2024-02-13T20:22:20.766Z,6.28
2024-02-13T20:24:48.456Z,7.30
2024-02-13T20:27:15.201Z,6.53
2024-02-13T20:29:43.786Z,7.85
2024-02-13T20:32:10.526Z,7.50
2024-02-13T20:34:38.264Z,7.07
2024-02-13T20:37:05.042Z,7.75
2024-02-13T20:39:31.737Z,11.75
2024-02-13T20:41:59.830Z,10.27
2024-02-13T20:46:54.405Z,13.93
2024-02-13T20:49:20.911Z,10.18
2024-02-13T20:51:47.355Z,11.23
2024-02-13T20:54:16.757Z,11.38
2024-02-13T20:56:46.652Z,11.52
2024-02-13T20:59:13.586Z,8.98
2024-02-13T21:01:40.129Z,9.63
2024-02-13T21:04:08.256Z,9.68
2024-02-13T21:09:03.517Z,9.50
2024-02-13T21:11:30.079Z,9.38
2024-02-13T21:13:56.549Z,11.73
2024-02-13T21:16:32.421Z,9.85
2024-02-13T21:18:59.713Z,13.35
2024-02-13T21:21:44.844Z,11.15
2024-02-13T21:24:11.400Z,12.15
2024-02-13T21:26:41.592Z,12.57
2024-02-13T21:29:08.810Z,11.20
2024-02-13T21:31:35.878Z,11.82
2024-02-13T21:34:06.859Z,15.85
2024-02-13T21:36:34.801Z,12.18
2024-02-13T21:39:01.553Z,11.50
2024-02-13T21:41:28.182Z,11.10
2024-02-13T21:43:54.812Z,12.50
2024-02-13T21:46:21.281Z,10.77
2024-02-13T21:48:48.026Z,14.70
2024-02-13T21:51:14.916Z,11.48
2024-02-13T21:53:41.399Z,17.35
2024-02-13T21:56:07.931Z,14.43
2024-02-13T21:58:36.232Z,20.67
2024-02-13T22:01:02.721Z,21.27
2024-02-13T22:03:29.173Z,19.00
2024-02-13T22:05:55.831Z,12.00
2024-02-13T22:08:24.378Z,12.02
2024-02-13T22:10:51.064Z,13.45
2024-02-13T22:13:18.324Z,12.10
